Time;durP1;ratioP1;P1;durP2;ratioP2;P2;SDS_P1;SDS_P2;PMS_P1;PMS_P2;Temp;Humidity;BMP_temperature;BMP_pressure;BME280_temperature;BME280_humidity;BME280_pressure;Samples;Min_cycle;Max_cycle;Signal;HPM_P1;HPM_P2
2022/08/15 00:06:45;;;;;;;3.88;2.85;;;16.00;99.90;;;;;;20728314;23;20063;31
2022/08/15 00:17:02;;;;;;;4.25;3.33;;;15.80;99.90;;;;;;20878211;23;19913;-61
2022/08/15 00:27:24;;;;;;;5.60;4.10;;;15.90;99.90;;;;;;20631049;23;20118;-54
2022/08/15 00:37:27;;;;;;;5.18;3.38;;;15.90;99.90;;;;;;20779880;23;20576;-62
2022/08/15 00:47:29;;;;;;;5.55;3.30;;;15.90;99.90;;;;;;20764696;23;20010;-53
2022/08/15 01:08:38;;;;;;;3.05;2.70;;;15.70;99.90;;;;;;20694769;23;20130;-58
2022/08/15 01:18:42;;;;;;;4.13;2.63;;;16.00;99.90;;;;;;20670467;23;20110;-53
2022/08/15 01:28:48;;;;;;;5.00;3.60;;;15.80;99.90;;;;;;20831171;23;20118;-62
2022/08/15 01:39:01;;;;;;;5.85;2.50;;;15.80;99.90;;;;;;20733565;23;20043;-51
2022/08/15 01:49:16;;;;;;;3.08;2.55;;;15.70;99.90;;;;;;20771563;23;20110;31
2022/08/15 01:59:22;;;;;;;5.05;3.15;;;15.20;99.90;;;;;;20654867;23;20056;-59
2022/08/15 02:09:28;;;;;;;3.50;3.10;;;14.80;99.90;;;;;;20814933;23;20052;-52
2022/08/15 02:19:31;;;;;;;4.70;2.90;;;14.60;99.90;;;;;;20979699;23;20106;-52
2022/08/15 02:29:51;;;;;;;3.00;2.63;;;14.70;99.90;;;;;;20779626;23;20055;-55
2022/08/15 02:40:26;;;;;;;3.03;2.60;;;14.80;99.90;;;;;;20631794;23;20753;31
2022/08/15 02:50:28;;;;;;;3.53;2.55;;;15.20;99.90;;;;;;20650337;23;20436;-50
2022/08/15 03:00:33;;;;;;;4.22;2.35;;;15.60;99.90;;;;;;20714663;23;20059;-62
2022/08/15 03:11:00;;;;;;;4.90;2.22;;;16.00;99.90;;;;;;20772916;23;20055;-53
2022/08/15 03:21:12;;;;;;;2.53;2.10;;;16.20;99.90;;;;;;20693624;23;20055;-62
2022/08/15 03:31:17;;;;;;;4.63;2.00;;;16.20;99.90;;;;;;20686275;23;20041;-60
2022/08/15 03:41:22;;;;;;;4.70;2.05;;;16.10;99.90;;;;;;20753417;23;20051;-53
2022/08/15 03:51:29;;;;;;;3.40;2.00;;;16.10;99.90;;;;;;20799264;23;20051;-63
2022/08/15 04:01:39;;;;;;;4.90;1.90;;;16.20;99.90;;;;;;20772650;23;20043;-49
2022/08/15 04:11:48;;;;;;;2.40;1.80;;;16.20;99.90;;;;;;20746727;23;20516;-50
2022/08/15 04:22:06;;;;;;;3.10;1.75;;;16.30;99.90;;;;;;20790095;23;2186678;-62
2022/08/15 04:32:11;;;;;;;;;;;16.40;99.90;;;;;;20745677;23;20114;-55
2022/08/15 04:42:14;;;;;;;1.85;1.75;;;16.50;99.90;;;;;;20766794;23;19974;-50
2022/08/15 04:52:23;;;;;;;3.90;2.17;;;16.30;99.90;;;;;;20771756;23;20059;-63
2022/08/15 05:02:31;;;;;;;3.97;2.47;;;16.20;99.90;;;;;;20723415;23;20568;-53
2022/08/15 05:12:36;;;;;;;6.72;2.90;;;16.10;99.90;;;;;;20951237;23;20026;-63
2022/08/15 05:23:01;;;;;;;4.85;2.83;;;16.40;99.90;;;;;;20870768;23;20079;-63
2022/08/15 05:33:12;;;;;;;3.38;2.40;;;17.10;99.90;;;;;;20659349;23;20055;-51
2022/08/15 05:44:16;;;;;;;4.05;3.63;;;17.60;99.90;;;;;;20825251;23;20059;-60
2022/08/15 05:54:31;;;;;;;2.80;2.47;;;18.20;99.90;;;;;;20851380;23;20137;-54
2022/08/15 06:05:02;;;;;;;2.97;2.35;;;18.70;99.20;;;;;;20693126;23;20043;-46
2022/08/15 06:15:17;;;;;;;2.45;2.25;;;19.00;99.90;;;;;;20814692;23;20051;-51
2022/08/15 06:25:44;;;;;;;2.22;2.03;;;19.70;99.10;;;;;;20739229;23;20079;-47
2022/08/15 06:35:58;;;;;;;2.60;2.40;;;19.70;99.90;;;;;;20740128;23;20061;-53
2022/08/15 06:46:15;;;;;;;2.30;2.10;;;20.10;99.60;;;;;;20819228;23;20504;31
2022/08/15 06:56:50;;;;;;;3.92;2.15;;;21.00;98.20;;;;;;20881043;23;20424;-47
2022/08/15 07:07:09;;;;;;;3.72;3.22;;;22.80;96.20;;;;;;20661390;23;20089;-57
2022/08/15 07:28:18;;;;;;;3.58;3.28;;;24.40;93.20;;;;;;20679790;23;20059;-52
2022/08/15 07:38:34;;;;;;;4.50;2.78;;;24.90;92.60;;;;;;20772167;23;20076;-67
2022/08/15 07:48:42;;;;;;;4.32;3.45;;;25.10;93.10;;;;;;20738985;23;20433;-49
2022/08/15 07:59:22;;;;;;;6.43;3.60;;;25.20;92.90;;;;;;20770039;23;20055;-50
2022/08/15 08:09:50;;;;;;;4.87;3.80;;;25.40;93.80;;;;;;20691870;23;20043;31
2022/08/15 08:30:53;;;;;;;6.25;5.65;;;23.30;95.00;;;;;;20830742;23;20059;-66
2022/08/15 08:52:46;;;;;;;4.38;3.53;;;24.00;95.40;;;;;;20653609;23;20055;31
2022/08/15 09:03:06;;;;;;;3.70;3.30;;;25.10;92.90;;;;;;20690286;23;20055;-65
2022/08/15 09:23:48;;;;;;;5.55;3.80;;;24.40;91.70;;;;;;20726038;23;20055;-54
2022/08/15 09:34:19;;;;;;;4.78;4.28;;;23.80;93.50;;;;;;20971261;23;20039;-55
2022/08/15 09:44:45;;;;;;;8.88;5.90;;;24.20;94.00;;;;;;20753447;23;20055;-54
2022/08/15 09:54:58;;;;;;;6.85;4.70;;;24.80;92.70;;;;;;20812614;23;20047;-50
2022/08/15 10:05:18;;;;;;;7.80;5.25;;;24.80;93.90;;;;;;20933305;23;20473;31
2022/08/15 10:15:51;;;;;;;6.15;4.20;;;24.50;95.20;;;;;;20810412;23;19981;-53
2022/08/15 10:26:31;;;;;;;5.50;4.57;;;24.50;94.40;;;;;;20704887;23;20059;-56
2022/08/15 10:36:40;;;;;;;6.22;5.63;;;23.90;95.00;;;;;;20675215;23;20051;-54
2022/08/15 10:46:53;;;;;;;8.93;5.75;;;23.50;94.30;;;;;;20725889;23;20118;-56
2022/08/15 10:56:56;;;;;;;5.80;5.18;;;23.40;94.90;;;;;;20748814;23;20086;-51
2022/08/15 11:07:33;;;;;;;5.60;4.75;;;23.80;95.10;;;;;;20846240;23;20099;-55
2022/08/15 11:18:09;;;;;;;6.85;6.05;;;24.80;93.90;;;;;;20720854;23;20591;-60
2022/08/15 11:28:45;;;;;;;7.60;4.47;;;25.40;93.70;;;;;;20637956;23;20056;-50
2022/08/15 11:49:52;;;;;;;5.30;4.60;;;26.60;91.80;;;;;;20713564;23;20058;-50
2022/08/15 12:00:13;;;;;;;6.65;4.60;;;26.60;91.60;;;;;;20603895;23;20517;-63
2022/08/15 12:10:40;;;;;;;5.55;4.07;;;26.60;92.90;;;;;;20748988;23;20063;-58
2022/08/15 12:21:04;;;;;;;19.40;6.97;;;27.40;92.00;;;;;;20676646;23;1471070;-46
2022/08/15 12:31:18;;;;;;;3.90;3.10;;;27.80;90.20;;;;;;20882186;23;20051;-53
2022/08/15 12:41:21;;;;;;;3.33;3.03;;;28.40;90.30;;;;;;20752474;23;20055;-65
2022/08/15 12:51:26;;;;;;;4.85;3.00;;;27.80;89.70;;;;;;20502349;28;20544;-48
2022/08/15 13:01:30;;;;;;;3.22;2.90;;;26.50;86.60;;;;;;20468922;29;20067;-51
2022/08/15 13:11:36;;;;;;;4.63;2.90;;;25.40;91.10;;;;;;20466757;28;20071;-61
2022/08/15 13:32:03;;;;;;;4.40;3.00;;;24.40;92.30;;;;;;20488253;29;20086;-51
2022/08/15 13:42:05;;;;;;;3.40;2.60;;;25.60;91.80;;;;;;20484101;28;20047;-67
2022/08/15 13:52:08;;;;;;;3.63;3.00;;;26.40;91.10;;;;;;20487850;29;20113;-65
2022/08/15 14:02:13;;;;;;;4.75;3.22;;;26.60;90.30;;;;;;20483768;29;20039;-53
2022/08/15 14:12:15;;;;;;;3.45;3.15;;;25.90;90.70;;;;;;20485616;29;20035;-62
2022/08/15 14:22:18;;;;;;;4.07;3.03;;;25.30;88.40;;;;;;20482552;29;20035;-64
2022/08/15 14:32:23;;;;;;;4.55;3.00;;;24.90;90.70;;;;;;20482996;29;20031;-54
2022/08/15 14:42:26;;;;;;;4.00;3.20;;;25.20;88.60;;;;;;20472307;28;20054;-66
2022/08/15 14:52:30;;;;;;;3.60;2.85;;;25.90;88.50;;;;;;20482109;29;20040;-63
2022/08/15 15:02:33;;;;;;;3.75;3.03;;;25.50;88.50;;;;;;20481430;29;20160;-65
2022/08/15 15:12:37;;;;;;;4.45;3.42;;;25.50;89.10;;;;;;20481101;29;20445;-65
2022/08/15 15:22:40;;;;;;;5.20;2.88;;;25.20;87.60;;;;;;20481169;29;20090;-61
2022/08/15 15:32:43;;;;;;;4.13;2.83;;;24.60;90.30;;;;;;20498392;29;20444;-61
2022/08/15 15:42:46;;;;;;;4.55;3.38;;;24.40;90.40;;;;;;20493005;29;20051;-61
2022/08/15 15:52:53;;;;;;;4.57;3.58;;;24.70;90.30;;;;;;20495135;28;20574;-61
2022/08/15 16:02:57;;;;;;;;;;;25.40;89.70;;;;;;20496097;29;20071;-62
2022/08/15 16:13:04;;;;;;;8.73;3.53;;;25.90;88.40;;;;;;20509451;23;19922;-51
2022/08/15 16:23:16;;;;;;;4.53;3.42;;;25.20;88.90;;;;;;20494089;29;20067;-53
2022/08/15 16:33:25;;;;;;;3.42;3.13;;;23.40;91.00;;;;;;20483981;29;20036;-48
2022/08/15 16:43:33;;;;;;;6.40;3.97;;;21.70;93.60;;;;;;20510893;28;20086;-64
2022/08/15 16:54:09;;;;;;;6.57;3.92;;;20.50;95.20;;;;;;20482815;28;20473;-50
2022/08/15 17:04:49;;;;;;;5.18;4.47;;;19.60;97.40;;;;;;20248100;29;20048;-47
2022/08/15 17:15:19;;;;;;;9.38;5.07;;;19.00;98.70;;;;;;20246885;29;20402;-63
2022/08/15 17:25:24;;;;;;;9.75;5.30;;;18.70;99.30;;;;;;20246482;29;20048;-46
2022/08/15 17:35:28;;;;;;;5.28;4.78;;;18.50;99.80;;;;;;20336908;29;20493;-50
2022/08/15 17:45:33;;;;;;;8.07;5.50;;;18.40;99.90;;;;;;20488924;29;20098;-63
2022/08/15 17:55:46;;;;;;;11.75;8.98;;;18.30;99.90;;;;;;20489196;29;20429;-50
2022/08/15 18:05:48;;;;;;;21.23;16.45;;;17.90;99.90;;;;;;20487061;29;20039;-49
2022/08/15 18:16:17;;;;;;;31.38;23.88;;;17.60;99.90;;;;;;20486313;28;20043;-47
2022/08/15 18:26:26;;;;;;;8.13;7.20;;;17.20;99.90;;;;;;20481657;29;20051;-46
2022/08/15 18:36:51;;;;;;;10.00;4.93;;;17.00;99.90;;;;;;20501160;29;20389;-51
2022/08/15 18:47:02;;;;;;;7.70;5.15;;;16.90;99.90;;;;;;20484309;29;20039;-51
2022/08/15 18:57:11;;;;;;;;;;;17.10;99.90;;;;;;20486946;29;20109;-63
2022/08/15 19:07:14;;;;;;;5.35;3.97;;;17.10;99.90;;;;;;20483212;29;19910;-59
2022/08/15 19:17:27;;;;;;;6.50;5.10;;;17.00;99.90;;;;;;20481758;28;20087;-63
2022/08/15 19:28:01;;;;;;;8.50;5.72;;;17.10;99.90;;;;;;20482237;29;20083;-49
2022/08/15 19:38:15;;;;;;;8.45;6.38;;;17.20;99.90;;;;;;20481773;29;20181;-50
2022/08/15 19:48:34;;;;;;;13.25;6.30;;;16.90;99.90;;;;;;20482334;29;20105;-49
2022/08/15 19:58:58;;;;;;;10.65;6.50;;;17.20;99.90;;;;;;20490888;29;20043;-62
2022/08/15 20:09:30;;;;;;;8.10;6.20;;;17.70;99.90;;;;;;20465150;29;20102;-51
2022/08/15 20:20:05;;;;;;;8.27;5.90;;;18.00;99.90;;;;;;20480009;29;20047;-51
2022/08/15 20:30:17;;;;;;;8.82;6.85;;;17.70;99.90;;;;;;20493647;29;20035;-48
2022/08/15 20:40:25;;;;;;;8.43;7.60;;;17.60;99.90;;;;;;20509937;29;20035;-50
2022/08/15 20:50:29;;;;;;;10.27;7.60;;;17.70;99.90;;;;;;20493104;29;20039;-51
2022/08/15 21:01:27;;;;;;;11.48;8.98;;;17.40;99.90;;;;;;20493044;29;20070;-49
2022/08/15 21:11:49;;;;;;;9.18;8.27;;;16.90;99.90;;;;;;20256123;29;20048;-49
2022/08/15 21:21:51;;;;;;;9.43;8.52;;;17.20;99.90;;;;;;20108140;29;20464;-52
2022/08/15 21:31:57;;;;;;;13.00;9.70;;;17.00;99.90;;;;;;20092440;29;20054;-52
2022/08/15 21:42:26;;;;;;;11.73;9.20;;;16.50;99.90;;;;;;20214525;29;20056;-51
2022/08/15 21:52:34;;;;;;;13.25;11.55;;;16.30;99.90;;;;;;20075158;29;20041;-64
2022/08/15 22:03:06;;;;;;;19.37;16.60;;;16.00;99.90;;;;;;20101091;29;20404;-52
2022/08/15 22:13:12;;;;;;;13.30;12.00;;;15.60;99.90;;;;;;20165787;29;20129;-51
2022/08/15 22:23:16;;;;;;;11.02;9.40;;;15.30;99.90;;;;;;20245530;29;20110;-49
2022/08/15 22:33:19;;;;;;;10.98;9.25;;;15.50;99.90;;;;;;20470324;29;20094;-51
2022/08/15 22:43:27;;;;;;;12.48;8.55;;;15.70;99.90;;;;;;20495792;29;20070;-51
2022/08/15 22:53:33;;;;;;;8.50;7.60;;;15.80;99.90;;;;;;20483721;29;20035;-65
2022/08/15 23:03:36;;;;;;;8.18;6.82;;;16.00;99.90;;;;;;20483917;29;20094;-53
2022/08/15 23:14:05;;;;;;;6.45;3.75;;;15.80;99.90;;;;;;20483165;28;20043;-51
2022/08/15 23:24:11;;;;;;;3.55;2.40;;;15.50;99.90;;;;;;20498429;29;20102;-64
2022/08/15 23:34:14;;;;;;;4.60;2.58;;;15.20;99.90;;;;;;20514275;28;20031;-51
2022/08/15 23:44:17;;;;;;;5.53;2.35;;;14.80;99.90;;;;;;20482063;29;20090;-53
2022/08/15 23:54:25;;;;;;;2.97;2.63;;;14.30;99.90;;;;;;20481693;29;20039;-53
